PWSweather.com
Personal Weather Stations
Station Observations

ChardChardGB

Lat: 50.877408, Lon: -2.94964741

Elevation: 341

Station Type: WS3083

http://www.merriott-astro.co.uk/weather/index.htm

Latest ConditionsUpdated 7:20:12 PM GMT Tuesday, Nov 12, 2019
Currently Today's Max Today's Min Today's Average
Temperature 48.0°F8.9°C 49.6°F9.8°C 38.8°F3.8°C 44.0°F6.7°C
Dew Point 38.3°F3.5°C 38.3°F3.5°C 32.7°F0.4°C 35.5°F1.9°C
Winds 6.6 mph NW10.6 kmh NW 14.8 mph -23.8 kmh - - 7.1 mph 11.4 kmh
Wind Gusts 9.8 mph15.8 kmh 20.6 mph33.2 kmh - -
Humidity 69% 83% 53% 73%
Pressure 30.46 in1031.5 mb 30.50 in1032.8 mb 30.39 in1029.1 mb -
Precipitation - 0.04 in1.0 mm - -
Hour Temp Dew Point Humidity Winds Wind Gusts Pressure Precip Precip Rate Daily Precip Total
07:20 PM 48.0°F8.9°C 38.3°F3.5°C 69% 6.6 mph NW10.6 kmh NW 9.8 mph15.8 kmh 30.46 in1031.5 mb 0.00 in0.0 mm 0.00 in0.0 mm 0.04 in1.0 mm
07:10 PM 48.0°F8.9°C 38.3°F3.5°C 69% 6.3 mph NW10.1 kmh NW 9.8 mph15.8 kmh 30.46 in1031.5 mb 0.00 in0.0 mm 0.00 in0.0 mm 0.04 in1.0 mm
07:00 PM 48.0°F8.9°C 38.3°F3.5°C 69% 6.4 mph NW10.3 kmh NW 9.8 mph15.8 kmh 30.45 in1031.2 mb 0.00 in0.0 mm 0.00 in0.0 mm 0.04 in1.0 mm
06:50 PM 48.0°F8.9°C 38.3°F3.5°C 69% 6.9 mph WNW11.1 kmh WNW 10.7 mph17.2 kmh 30.45 in1031.2 mb 0.00 in0.0 mm 0.00 in0.0 mm 0.04 in1.0 mm
06:40 PM 48.0°F8.9°C 38.0°F3.3°C 68% 7.2 mph NW11.6 kmh NW 9.8 mph15.8 kmh 30.45 in1031.2 mb 0.00 in0.0 mm 0.00 in0.0 mm 0.04 in1.0 mm
06:30 PM 48.0°F8.9°C 38.0°F3.3°C 68% 7.5 mph NW12.1 kmh NW 11.4 mph18.3 kmh 30.45 in1031.2 mb 0.00 in0.0 mm 0.00 in0.0 mm 0.04 in1.0 mm
06:20 PM 48.0°F8.9°C 38.0°F3.3°C 68% 7.7 mph WNW12.4 kmh WNW 9.8 mph15.8 kmh 30.45 in1031.2 mb 0.00 in0.0 mm 0.00 in0.0 mm 0.04 in1.0 mm
06:10 PM 48.0°F8.9°C 38.0°F3.3°C 68% 9.0 mph NW14.5 kmh NW 13.0 mph20.9 kmh 30.43 in1030.5 mb 0.00 in0.0 mm 0.00 in0.0 mm 0.04 in1.0 mm
06:00 PM 48.0°F8.9°C 38.0°F3.3°C 68% 8.6 mph WNW13.8 kmh WNW 13.6 mph21.9 kmh 30.43 in1030.5 mb 0.00 in0.0 mm 0.00 in0.0 mm 0.04 in1.0 mm
05:50 PM 48.0°F8.9°C 37.6°F3.1°C 67% 10.7 mph W17.2 kmh W 15.2 mph24.5 kmh 30.43 in1030.5 mb 0.00 in0.0 mm 0.00 in0.0 mm 0.04 in1.0 mm
05:40 PM 48.0°F8.9°C 37.6°F3.1°C 67% 9.6 mph WNW15.4 kmh WNW 17.4 mph28.0 kmh 30.43 in1030.5 mb 0.00 in0.0 mm 0.00 in0.0 mm 0.04 in1.0 mm
05:30 PM 47.8°F8.8°C 37.8°F3.2°C 68% 9.3 mph WNW15.0 kmh WNW 12.1 mph19.5 kmh 30.42 in1030.1 mb 0.00 in0.0 mm 0.00 in0.0 mm 0.04 in1.0 mm
05:20 PM 47.7°F8.7°C 38.0°F3.3°C 69% 9.5 mph WNW15.3 kmh WNW 14.5 mph23.3 kmh 30.42 in1030.1 mb 0.00 in0.0 mm 0.00 in0.0 mm 0.04 in1.0 mm
05:10 PM 47.7°F8.7°C 38.0°F3.3°C 69% 7.7 mph WNW12.4 kmh WNW 13.0 mph20.9 kmh 30.42 in1030.1 mb 0.00 in0.0 mm 0.00 in0.0 mm 0.04 in1.0 mm
05:00 PM 47.5°F8.6°C 38.2°F3.4°C 70% 7.7 mph WNW12.4 kmh WNW 12.1 mph19.5 kmh 30.42 in1030.1 mb 0.00 in0.0 mm 0.00 in0.0 mm 0.04 in1.0 mm
04:50 PM 47.5°F8.6°C 38.2°F3.4°C 70% 9.6 mph W15.4 kmh W 14.5 mph23.3 kmh 30.41 in1029.8 mb 0.00 in0.0 mm 0.00 in0.0 mm 0.04 in1.0 mm
04:40 PM 47.3°F8.5°C 38.0°F3.3°C 70% 8.5 mph NW13.7 kmh NW 12.1 mph19.5 kmh 30.41 in1029.8 mb 0.00 in0.0 mm 0.00 in0.0 mm 0.04 in1.0 mm
04:30 PM 47.1°F8.4°C 37.8°F3.2°C 70% 8.4 mph NW13.5 kmh NW 12.1 mph19.5 kmh 30.40 in1029.5 mb 0.00 in0.0 mm 0.00 in0.0 mm 0.04 in1.0 mm
04:20 PM 46.9°F8.3°C 37.7°F3.2°C 70% 7.2 mph WNW11.6 kmh WNW 12.1 mph19.5 kmh 30.40 in1029.5 mb 0.00 in0.0 mm 0.00 in0.0 mm 0.04 in1.0 mm
04:10 PM 46.9°F8.3°C 38.0°F3.3°C 71% 9.9 mph W15.9 kmh W 13.0 mph20.9 kmh 30.41 in1029.8 mb 0.00 in0.0 mm 0.00 in0.0 mm 0.04 in1.0 mm
04:00 PM 46.8°F8.2°C 37.9°F3.3°C 71% 10.6 mph WNW17.1 kmh WNW 13.0 mph20.9 kmh 30.40 in1029.5 mb 0.00 in0.0 mm 0.00 in0.0 mm 0.04 in1.0 mm
03:50 PM 46.6°F8.1°C 37.7°F3.2°C 71% 9.6 mph NW15.4 kmh NW 13.6 mph21.9 kmh 30.39 in1029.1 mb 0.00 in0.0 mm 0.00 in0.0 mm 0.04 in1.0 mm
03:40 PM 46.9°F8.3°C 37.7°F3.2°C 70% 9.9 mph WNW15.9 kmh WNW 13.6 mph21.9 kmh 30.39 in1029.1 mb 0.00 in0.0 mm 0.00 in0.0 mm 0.04 in1.0 mm
03:30 PM 47.1°F8.4°C 37.8°F3.2°C 70% 11.2 mph WNW18.0 kmh WNW 15.2 mph24.5 kmh 30.39 in1029.1 mb 0.00 in0.0 mm 0.00 in0.0 mm 0.04 in1.0 mm
03:20 PM 47.3°F8.5°C 37.7°F3.2°C 69% 11.0 mph W17.7 kmh W 18.3 mph29.5 kmh 30.39 in1029.1 mb 0.00 in0.0 mm 0.00 in0.0 mm 0.04 in1.0 mm
03:10 PM 47.3°F8.5°C 37.3°F2.9°C 68% 11.6 mph NW18.7 kmh NW 15.9 mph25.6 kmh 30.39 in1029.1 mb 0.00 in0.0 mm 0.00 in0.0 mm 0.04 in1.0 mm
03:00 PM 47.5°F8.6°C 37.1°F2.8°C 67% 13.9 mph WNW22.4 kmh WNW 20.6 mph33.2 kmh 30.39 in1029.1 mb 0.00 in0.0 mm 0.00 in0.0 mm 0.04 in1.0 mm
02:50 PM 47.8°F8.8°C 37.0°F2.8°C 66% 11.2 mph NW18.0 kmh NW 15.2 mph24.5 kmh 30.39 in1029.1 mb 0.00 in0.0 mm 0.00 in0.0 mm 0.04 in1.0 mm
02:40 PM 47.8°F8.8°C 36.7°F2.6°C 65% 11.6 mph WNW18.7 kmh WNW 15.2 mph24.5 kmh 30.39 in1029.1 mb 0.00 in0.0 mm 0.00 in0.0 mm 0.04 in1.0 mm
02:30 PM 48.2°F9.0°C 36.2°F2.3°C 63% 11.5 mph NW18.5 kmh NW 15.9 mph25.6 kmh 30.39 in1029.1 mb 0.00 in0.0 mm 0.00 in0.0 mm 0.04 in1.0 mm
02:20 PM 48.4°F9.1°C 36.4°F2.4°C 63% 10.9 mph NW17.5 kmh NW 17.4 mph28.0 kmh 30.39 in1029.1 mb 0.00 in0.0 mm 0.00 in0.0 mm 0.04 in1.0 mm
02:10 PM 48.2°F9.0°C 36.2°F2.3°C 63% 11.8 mph NW19.0 kmh NW 15.2 mph24.5 kmh 30.39 in1029.1 mb 0.00 in0.0 mm 0.00 in0.0 mm 0.04 in1.0 mm
02:00 PM 48.0°F8.9°C 36.0°F2.2°C 63% 10.2 mph WNW16.4 kmh WNW 14.5 mph23.3 kmh 30.39 in1029.1 mb 0.00 in0.0 mm 0.00 in0.0 mm 0.04 in1.0 mm
01:50 PM 47.8°F8.8°C 35.5°F1.9°C 62% 11.4 mph WNW18.3 kmh WNW 15.9 mph25.6 kmh 30.40 in1029.5 mb 0.00 in0.0 mm 0.00 in0.0 mm 0.04 in1.0 mm
01:40 PM 47.8°F8.8°C 35.1°F1.7°C 61% 12.8 mph WNW20.6 kmh WNW 15.9 mph25.6 kmh 30.40 in1029.5 mb 0.00 in0.0 mm 0.00 in0.0 mm 0.04 in1.0 mm
01:30 PM 48.0°F8.9°C 35.2°F1.8°C 61% 10.5 mph NW16.9 kmh NW 16.8 mph27.0 kmh 30.40 in1029.5 mb 0.00 in0.0 mm 0.00 in0.0 mm 0.04 in1.0 mm
01:20 PM 48.2°F9.0°C 35.4°F1.9°C 61% 7.7 mph NW12.4 kmh NW 15.2 mph24.5 kmh 30.40 in1029.5 mb 0.00 in0.0 mm 0.00 in0.0 mm 0.04 in1.0 mm
01:10 PM 48.0°F8.9°C 35.2°F1.8°C 61% 10.1 mph W16.3 kmh W 15.2 mph24.5 kmh 30.40 in1029.5 mb 0.00 in0.0 mm 0.00 in0.0 mm 0.04 in1.0 mm
01:00 PM 47.8°F8.8°C 34.6°F1.4°C 60% 10.9 mph W17.5 kmh W 15.2 mph24.5 kmh 30.40 in1029.5 mb 0.00 in0.0 mm 0.00 in0.0 mm 0.04 in1.0 mm
12:50 PM 47.8°F8.8°C 34.6°F1.4°C 60% 11.6 mph W18.7 kmh W 17.4 mph28.0 kmh 30.40 in1029.5 mb 0.00 in0.0 mm 0.00 in0.0 mm 0.04 in1.0 mm
12:40 PM 47.7°F8.7°C 34.0°F1.1°C 59% 10.3 mph NW16.6 kmh NW 16.8 mph27.0 kmh 30.41 in1029.8 mb 0.00 in0.0 mm 0.00 in0.0 mm 0.04 in1.0 mm
12:30 PM 48.0°F8.9°C 33.5°F0.8°C 57% 10.7 mph NW17.2 kmh NW 15.2 mph24.5 kmh 30.42 in1030.1 mb 0.00 in0.0 mm 0.00 in0.0 mm 0.04 in1.0 mm
12:20 PM 48.6°F9.2°C 32.7°F0.4°C 54% 12.6 mph WNW20.3 kmh WNW 16.8 mph27.0 kmh 30.42 in1030.1 mb 0.00 in0.0 mm 0.00 in0.0 mm 0.04 in1.0 mm
12:10 PM 49.6°F9.8°C 33.2°F0.7°C 53% 11.1 mph NW17.9 kmh NW 16.8 mph27.0 kmh 30.42 in1030.1 mb 0.00 in0.0 mm 0.00 in0.0 mm 0.04 in1.0 mm
12:00 PM 49.3°F9.6°C 33.4°F0.8°C 54% 14.8 mph NW23.8 kmh NW 18.3 mph29.5 kmh 30.41 in1029.8 mb 0.00 in0.0 mm 0.00 in0.0 mm 0.04 in1.0 mm
11:50 AM 48.9°F9.4°C 33.0°F0.6°C 54% 13.1 mph NW21.1 kmh NW 17.4 mph28.0 kmh 30.40 in1029.5 mb 0.00 in0.0 mm 0.00 in0.0 mm 0.04 in1.0 mm
11:40 AM 48.9°F9.4°C 33.0°F0.6°C 54% 13.6 mph NW21.9 kmh NW 19.0 mph30.6 kmh 30.41 in1029.8 mb 0.01 in0.3 mm 0.00 in0.0 mm 0.04 in1.0 mm
11:30 AM 49.1°F9.5°C 34.1°F1.2°C 56% 9.8 mph NW15.8 kmh NW 13.6 mph21.9 kmh 30.42 in1030.1 mb 0.01 in0.3 mm 0.00 in0.0 mm 0.04 in1.0 mm
11:20 AM 48.6°F9.2°C 34.5°F1.4°C 58% 10.0 mph NW16.1 kmh NW 13.6 mph21.9 kmh 30.42 in1030.1 mb 0.01 in0.3 mm 0.00 in0.0 mm 0.04 in1.0 mm
11:10 AM 48.7°F9.3°C 35.1°F1.7°C 59% 8.1 mph NW13.0 kmh NW 9.8 mph15.8 kmh 30.42 in1030.1 mb 0.01 in0.3 mm 0.00 in0.0 mm 0.04 in1.0 mm
11:00 AM 48.0°F8.9°C 34.8°F1.6°C 60% 10.2 mph NW16.4 kmh NW 15.9 mph25.6 kmh 30.42 in1030.1 mb 0.01 in0.3 mm 0.00 in0.0 mm 0.04 in1.0 mm
10:50 AM 47.5°F8.6°C 35.5°F1.9°C 63% 7.6 mph WNW12.2 kmh WNW 10.7 mph17.2 kmh 30.43 in1030.5 mb 0.01 in0.3 mm 0.06 in1.5 mm 0.04 in1.0 mm
10:40 AM 46.2°F7.9°C 35.5°F1.9°C 66% 5.2 mph W8.4 kmh W 7.6 mph12.2 kmh 30.43 in1030.5 mb 0.00 in0.0 mm 0.00 in0.0 mm 0.02 in0.5 mm
10:30 AM 45.3°F7.4°C 36.8°F2.7°C 72% 4.1 mph WSW6.6 kmh WSW 6.0 mph9.7 kmh 30.44 in1030.8 mb 0.00 in0.0 mm 0.00 in0.0 mm 0.02 in0.5 mm
10:20 AM 44.8°F7.1°C 36.3°F2.4°C 72% 6.1 mph WSW9.8 kmh WSW 12.1 mph19.5 kmh 30.44 in1030.8 mb 0.00 in0.0 mm 0.00 in0.0 mm 0.02 in0.5 mm
10:10 AM 44.2°F6.8°C 36.5°F2.5°C 74% 6.2 mph WSW10.0 kmh WSW 12.1 mph19.5 kmh 30.43 in1030.5 mb 0.00 in0.0 mm 0.00 in0.0 mm 0.02 in0.5 mm
10:00 AM 43.5°F6.4°C 36.1°F2.3°C 75% 5.1 mph WNW8.2 kmh WNW 7.6 mph12.2 kmh 30.43 in1030.5 mb 0.00 in0.0 mm 0.00 in0.0 mm 0.02 in0.5 mm
09:50 AM 43.2°F6.2°C 35.8°F2.1°C 75% 5.8 mph NNW9.3 kmh NNW 8.3 mph13.4 kmh 30.43 in1030.5 mb 0.00 in0.0 mm 0.00 in0.0 mm 0.02 in0.5 mm
09:40 AM 43.0°F6.1°C 35.3°F1.8°C 74% 4.7 mph SW7.6 kmh SW 6.9 mph11.1 kmh 30.43 in1030.5 mb 0.00 in0.0 mm 0.00 in0.0 mm 0.02 in0.5 mm
09:30 AM 42.8°F6.0°C 35.1°F1.7°C 74% 5.1 mph NW8.2 kmh NW 9.2 mph14.8 kmh 30.44 in1030.8 mb 0.00 in0.0 mm 0.00 in0.0 mm 0.02 in0.5 mm
09:20 AM 42.4°F5.8°C 35.1°F1.7°C 75% 4.9 mph W7.9 kmh W 8.3 mph13.4 kmh 30.45 in1031.2 mb 0.00 in0.0 mm 0.00 in0.0 mm 0.02 in0.5 mm
09:10 AM 42.1°F5.6°C 35.1°F1.7°C 76% 4.3 mph WSW6.9 kmh WSW 6.0 mph9.7 kmh 30.44 in1030.8 mb 0.00 in0.0 mm 0.00 in0.0 mm 0.02 in0.5 mm
09:00 AM 41.7°F5.4°C 35.4°F1.9°C 78% 4.8 mph WSW7.7 kmh WSW 6.0 mph9.7 kmh 30.44 in1030.8 mb 0.00 in0.0 mm 0.00 in0.0 mm 0.02 in0.5 mm
08:50 AM 41.0°F5.0°C 35.3°F1.8°C 80% 3.4 mph W5.5 kmh W 5.4 mph8.7 kmh 30.44 in1030.8 mb 0.00 in0.0 mm 0.00 in0.0 mm 0.02 in0.5 mm
08:40 AM 40.6°F4.8°C 35.0°F1.7°C 80% 2.5 mph WNW4.0 kmh WNW 4.5 mph7.2 kmh 30.45 in1031.2 mb 0.00 in0.0 mm 0.00 in0.0 mm 0.02 in0.5 mm
08:30 AM 40.3°F4.6°C 34.6°F1.4°C 80% 3.9 mph W6.3 kmh W 7.6 mph12.2 kmh 30.45 in1031.2 mb 0.00 in0.0 mm 0.00 in0.0 mm 0.02 in0.5 mm
08:20 AM 40.3°F4.6°C 34.6°F1.4°C 80% 3.5 mph SSW5.6 kmh SSW 5.4 mph8.7 kmh 30.46 in1031.5 mb 0.00 in0.0 mm 0.00 in0.0 mm 0.02 in0.5 mm
08:10 AM 39.9°F4.4°C 34.3°F1.3°C 80% 2.4 mph SW3.9 kmh SW 5.4 mph8.7 kmh 30.45 in1031.2 mb 0.00 in0.0 mm 0.00 in0.0 mm 0.02 in0.5 mm
08:00 AM 39.4°F4.1°C 33.7°F0.9°C 80% 2.7 mph SW4.3 kmh SW 4.5 mph7.2 kmh 30.45 in1031.2 mb 0.00 in0.0 mm 0.00 in0.0 mm 0.02 in0.5 mm
07:50 AM 39.0°F3.9°C 33.4°F0.8°C 80% 4.2 mph S6.8 kmh S 5.4 mph8.7 kmh 30.45 in1031.2 mb 0.00 in0.0 mm 0.00 in0.0 mm 0.02 in0.5 mm
07:40 AM 39.2°F4.0°C 33.6°F0.9°C 80% 3.5 mph SSW5.6 kmh SSW 6.0 mph9.7 kmh 30.45 in1031.2 mb 0.00 in0.0 mm 0.00 in0.0 mm 0.02 in0.5 mm
07:30 AM 39.2°F4.0°C 33.6°F0.9°C 80% 5.1 mph SW8.2 kmh SW 6.9 mph11.1 kmh 30.45 in1031.2 mb 0.00 in0.0 mm 0.00 in0.0 mm 0.02 in0.5 mm
07:20 AM 39.0°F3.9°C 33.4°F0.8°C 80% 4.1 mph WSW6.6 kmh WSW 5.4 mph8.7 kmh 30.44 in1030.8 mb 0.00 in0.0 mm 0.00 in0.0 mm 0.02 in0.5 mm
07:10 AM 38.8°F3.8°C 33.2°F0.7°C 80% 4.3 mph WSW6.9 kmh WSW 6.9 mph11.1 kmh 30.45 in1031.2 mb 0.00 in0.0 mm 0.00 in0.0 mm 0.02 in0.5 mm
07:00 AM 38.8°F3.8°C 33.2°F0.7°C 80% 3.0 mph SW4.8 kmh SW 4.5 mph7.2 kmh 30.45 in1031.2 mb 0.00 in0.0 mm 0.00 in0.0 mm 0.02 in0.5 mm
06:50 AM 39.0°F3.9°C 33.4°F0.8°C 80% 4.2 mph W6.8 kmh W 6.9 mph11.1 kmh 30.45 in1031.2 mb 0.00 in0.0 mm 0.00 in0.0 mm 0.02 in0.5 mm
06:40 AM 39.2°F4.0°C 33.2°F0.7°C 79% 3.0 mph W4.8 kmh W 4.5 mph7.2 kmh 30.44 in1030.8 mb 0.00 in0.0 mm 0.00 in0.0 mm 0.02 in0.5 mm
06:20 AM 39.4°F4.1°C 33.7°F0.9°C 80% 4.1 mph W6.6 kmh W 6.9 mph11.1 kmh 30.44 in1030.8 mb 0.00 in0.0 mm 0.00 in0.0 mm 0.02 in0.5 mm
06:10 AM 39.4°F4.1°C 33.7°F0.9°C 80% 3.7 mph W6.0 kmh W 6.0 mph9.7 kmh 30.45 in1031.2 mb 0.00 in0.0 mm 0.00 in0.0 mm 0.02 in0.5 mm
06:00 AM 39.6°F4.2°C 33.9°F1.1°C 80% 3.1 mph SW5.0 kmh SW 6.0 mph9.7 kmh 30.45 in1031.2 mb 0.00 in0.0 mm 0.00 in0.0 mm 0.02 in0.5 mm
05:50 AM 39.4°F4.1°C 33.7°F0.9°C 80% 3.7 mph SW6.0 kmh SW 5.4 mph8.7 kmh 30.45 in1031.2 mb 0.00 in0.0 mm 0.00 in0.0 mm 0.02 in0.5 mm
05:40 AM 39.2°F4.0°C 33.6°F0.9°C 80% 4.1 mph SW6.6 kmh SW 6.9 mph11.1 kmh 30.45 in1031.2 mb 0.00 in0.0 mm 0.00 in0.0 mm 0.02 in0.5 mm
05:30 AM 39.0°F3.9°C 33.4°F0.8°C 80% 2.7 mph SW4.3 kmh SW 3.8 mph6.1 kmh 30.45 in1031.2 mb 0.00 in0.0 mm 0.00 in0.0 mm 0.02 in0.5 mm
05:20 AM 39.0°F3.9°C 33.4°F0.8°C 80% 2.6 mph SSW4.2 kmh SSW 4.5 mph7.2 kmh 30.46 in1031.5 mb 0.00 in0.0 mm 0.00 in0.0 mm 0.02 in0.5 mm
05:10 AM 39.2°F4.0°C 33.6°F0.9°C 80% 2.6 mph WNW4.2 kmh WNW 7.6 mph12.2 kmh 30.45 in1031.2 mb 0.00 in0.0 mm 0.00 in0.0 mm 0.02 in0.5 mm
05:00 AM 39.7°F4.3°C 34.1°F1.2°C 80% 3.6 mph W5.8 kmh W 6.0 mph9.7 kmh 30.45 in1031.2 mb 0.00 in0.0 mm 0.00 in0.0 mm 0.02 in0.5 mm
04:50 AM 39.9°F4.4°C 34.3°F1.3°C 80% 4.8 mph W7.7 kmh W 6.9 mph11.1 kmh 30.45 in1031.2 mb 0.00 in0.0 mm 0.00 in0.0 mm 0.02 in0.5 mm
04:40 AM 40.1°F4.5°C 34.4°F1.3°C 80% 5.3 mph NW8.5 kmh NW 9.2 mph14.8 kmh 30.46 in1031.5 mb 0.00 in0.0 mm 0.00 in0.0 mm 0.02 in0.5 mm
04:30 AM 39.9°F4.4°C 34.3°F1.3°C 80% 3.5 mph NW5.6 kmh NW 6.0 mph9.7 kmh 30.45 in1031.2 mb 0.00 in0.0 mm 0.00 in0.0 mm 0.02 in0.5 mm
04:20 AM 40.3°F4.6°C 34.3°F1.3°C 79% 5.2 mph NW8.4 kmh NW 10.7 mph17.2 kmh 30.45 in1031.2 mb 0.00 in0.0 mm 0.00 in0.0 mm 0.02 in0.5 mm
04:10 AM 40.6°F4.8°C 34.6°F1.4°C 79% 6.0 mph WSW9.7 kmh WSW 7.6 mph12.2 kmh 30.45 in1031.2 mb 0.00 in0.0 mm 0.00 in0.0 mm 0.02 in0.5 mm
04:00 AM 40.6°F4.8°C 35.0°F1.7°C 80% 6.8 mph WNW10.9 kmh WNW 9.8 mph15.8 kmh 30.45 in1031.2 mb 0.01 in0.3 mm 0.00 in0.0 mm 0.02 in0.5 mm
03:50 AM 40.3°F4.6°C 34.6°F1.4°C 80% 5.8 mph W9.3 kmh W 6.9 mph11.1 kmh 30.45 in1031.2 mb 0.01 in0.3 mm 0.00 in0.0 mm 0.02 in0.5 mm
03:40 AM 40.3°F4.6°C 34.6°F1.4°C 80% 4.4 mph NW7.1 kmh NW 6.0 mph9.7 kmh 30.46 in1031.5 mb 0.01 in0.3 mm 0.00 in0.0 mm 0.02 in0.5 mm
03:30 AM 40.6°F4.8°C 35.0°F1.7°C 80% 7.0 mph W11.3 kmh W 9.8 mph15.8 kmh 30.47 in1031.8 mb 0.01 in0.3 mm 0.00 in0.0 mm 0.02 in0.5 mm
03:20 AM 41.0°F5.0°C 35.3°F1.8°C 80% 7.5 mph WSW12.1 kmh WSW 9.8 mph15.8 kmh 30.46 in1031.5 mb 0.01 in0.3 mm 0.00 in0.0 mm 0.02 in0.5 mm
03:10 AM 41.2°F5.1°C 35.5°F1.9°C 80% 8.4 mph NW13.5 kmh NW 13.6 mph21.9 kmh 30.47 in1031.8 mb 0.01 in0.3 mm 0.06 in1.5 mm 0.02 in0.5 mm
03:00 AM 40.5°F4.7°C 35.4°F1.9°C 82% 5.6 mph SW9.0 kmh SW 6.9 mph11.1 kmh 30.47 in1031.8 mb 0.00 in0.0 mm 0.00 in0.0 mm 0.01 in0.3 mm
02:50 AM 39.7°F4.3°C 34.7°F1.5°C 82% 3.9 mph WSW6.3 kmh WSW 5.4 mph8.7 kmh 30.47 in1031.8 mb 0.00 in0.0 mm 0.00 in0.0 mm 0.01 in0.3 mm
02:40 AM 39.7°F4.3°C 34.7°F1.5°C 82% 5.0 mph SSW8.0 kmh SSW 7.6 mph12.2 kmh 30.47 in1031.8 mb 0.00 in0.0 mm 0.00 in0.0 mm 0.01 in0.3 mm
02:30 AM 39.7°F4.3°C 34.4°F1.3°C 81% 4.2 mph SW6.8 kmh SW 6.0 mph9.7 kmh 30.47 in1031.8 mb 0.00 in0.0 mm 0.00 in0.0 mm 0.01 in0.3 mm
02:20 AM 39.7°F4.3°C 34.4°F1.3°C 81% 3.9 mph SW6.3 kmh SW 5.4 mph8.7 kmh 30.48 in1032.2 mb 0.00 in0.0 mm 0.00 in0.0 mm 0.01 in0.3 mm
02:10 AM 39.9°F4.4°C 34.6°F1.4°C 81% 3.8 mph SW6.1 kmh SW 6.0 mph9.7 kmh 30.48 in1032.2 mb 0.00 in0.0 mm 0.00 in0.0 mm 0.01 in0.3 mm
02:00 AM 40.1°F4.5°C 34.7°F1.5°C 81% 4.0 mph WSW6.4 kmh WSW 6.0 mph9.7 kmh 30.48 in1032.2 mb 0.00 in0.0 mm 0.00 in0.0 mm 0.01 in0.3 mm
01:50 AM 40.3°F4.6°C 34.6°F1.4°C 80% 4.0 mph WSW6.4 kmh WSW 7.6 mph12.2 kmh 30.48 in1032.2 mb 0.00 in0.0 mm 0.00 in0.0 mm 0.01 in0.3 mm
01:40 AM 41.0°F5.0°C 35.3°F1.8°C 80% 4.5 mph WSW7.2 kmh WSW 8.3 mph13.4 kmh 30.48 in1032.2 mb 0.01 in0.3 mm 0.00 in0.0 mm 0.01 in0.3 mm
01:30 AM 41.5°F5.3°C 35.5°F1.9°C 79% 8.4 mph NW13.5 kmh NW 15.9 mph25.6 kmh 30.48 in1032.2 mb 0.01 in0.3 mm 0.00 in0.0 mm 0.01 in0.3 mm
01:20 AM 42.3°F5.7°C 36.2°F2.3°C 79% 8.8 mph W14.2 kmh W 13.0 mph20.9 kmh 30.49 in1032.5 mb 0.01 in0.3 mm 0.00 in0.0 mm 0.01 in0.3 mm
01:10 AM 41.9°F5.5°C 35.9°F2.2°C 79% 6.1 mph NNW9.8 kmh NNW 12.1 mph19.5 kmh 30.48 in1032.2 mb 0.01 in0.3 mm 0.00 in0.0 mm 0.01 in0.3 mm
01:00 AM 41.7°F5.4°C 35.1°F1.7°C 77% 4.7 mph NW7.6 kmh NW 7.6 mph12.2 kmh 30.48 in1032.2 mb 0.01 in0.3 mm 0.00 in0.0 mm 0.01 in0.3 mm
12:50 AM 42.1°F5.6°C 35.4°F1.9°C 77% 6.6 mph NW10.6 kmh NW 12.1 mph19.5 kmh 30.48 in1032.2 mb 0.01 in0.3 mm 0.06 in1.5 mm 0.01 in0.3 mm
12:40 AM 41.9°F5.5°C 36.2°F2.3°C 80% 6.8 mph NW10.9 kmh NW 9.8 mph15.8 kmh 30.48 in1032.2 mb 0.00 in0.0 mm 0.00 in0.0 mm 0.00 in0.0 mm
12:30 AM 41.9°F5.5°C 36.5°F2.5°C 81% 7.6 mph WNW12.2 kmh WNW 13.0 mph20.9 kmh 30.49 in1032.5 mb 0.00 in0.0 mm 0.00 in0.0 mm 0.00 in0.0 mm
12:20 AM 41.7°F5.4°C 36.9°F2.7°C 83% 6.5 mph SSW10.5 kmh SSW 9.8 mph15.8 kmh 30.49 in1032.5 mb 0.00 in0.0 mm 0.00 in0.0 mm 0.00 in0.0 mm
12:10 AM 41.2°F5.1°C 36.4°F2.4°C 83% 4.9 mph SW7.9 kmh SW 7.6 mph12.2 kmh 30.49 in1032.5 mb 0.00 in0.0 mm 0.00 in0.0 mm 0.00 in0.0 mm
12:00 AM 40.8°F4.9°C 36.1°F2.3°C 83% 3.4 mph SW5.5 kmh SW 6.0 mph9.7 kmh 30.50 in1032.8 mb 0.00 in0.0 mm 0.00 in0.0 mm 0.00 in0.0 mm